Time;durP1;ratioP1;P1;durP2;ratioP2;P2;SDS_P1;SDS_P2;PMS_P1;PMS_P2;Temp;Humidity;BMP_temperature;BMP_pressure;BME280_temperature;BME280_humidity;BME280_pressure;Samples;Min_cycle;Max_cycle;Signal;HPM_P1;HPM_P2
2022/07/27 00:00:19;;;;;;;2.40;1.88;;;;;;;18.26;47.84;101272.81;856803;23;1412;-95
2022/07/27 00:00:44;;;;;;;2.45;1.90;;;;;;;18.29;47.84;101275.47;857126;23;1215;-94
2022/07/27 00:01:08;;;;;;;3.03;2.00;;;;;;;18.27;47.75;101267.53;861059;23;1432;-94
2022/07/27 00:01:29;;;;;;;3.50;1.90;;;;;;;18.22;47.78;101264.84;852937;23;1224;-95
2022/07/27 00:01:50;;;;;;;3.78;1.88;;;;;;;18.26;47.82;101280.75;857031;23;1246;-95
2022/07/27 00:02:13;;;;;;;3.05;1.95;;;;;;;18.28;47.93;101285.16;856878;23;1246;-95
2022/07/27 00:02:35;;;;;;;3.55;2.00;;;;;;;18.27;47.83;101287.78;848637;23;1135;-94
2022/07/27 00:02:56;;;;;;;3.28;1.85;;;;;;;18.21;47.82;101270.16;856811;23;1371;-94
2022/07/27 00:03:22;;;;;;;3.75;1.80;;;;;;;18.17;47.88;101265.72;861006;23;1174;-94
2022/07/27 00:03:46;;;;;;;4.60;1.90;;;;;;;18.19;47.86;101269.28;861150;23;1289;-95
2022/07/27 00:04:10;;;;;;;6.20;2.00;;;;;;;18.20;47.80;101276.31;848527;23;1240;-95
2022/07/27 00:04:33;;;;;;;5.75;2.10;;;;;;;18.17;47.94;101271.00;852674;23;1346;-94
2022/07/27 00:05:04;;;;;;;5.00;2.10;;;;;;;18.05;48.03;101267.41;856832;23;1236;-95
2022/07/27 00:05:29;;;;;;;4.78;2.00;;;;;;;18.08;48.16;101272.69;852612;23;1287;-95
2022/07/27 00:05:53;;;;;;;3.90;1.80;;;;;;;18.09;48.30;101274.47;856976;23;1124;-95
2022/07/27 00:06:17;;;;;;;3.30;1.90;;;;;;;18.05;48.53;101272.69;856800;23;1375;-94
2022/07/27 00:06:40;;;;;;;4.18;2.00;;;;;;;18.02;48.34;101270.03;848555;23;1345;-94
2022/07/27 00:07:01;;;;;;;5.68;2.00;;;;;;;17.97;48.35;101263.84;852753;23;1417;-94
2022/07/27 00:07:24;;;;;;;4.18;1.88;;;;;;;18.04;48.47;101275.31;856980;23;1120;-95
2022/07/27 00:07:48;;;;;;;4.95;1.88;;;;;;;18.00;48.59;101269.13;848796;23;1448;-94
2022/07/27 00:08:09;;;;;;;4.38;1.90;;;;;;;17.97;48.73;101266.50;852606;23;1291;-94
2022/07/27 00:08:30;;;;;;;4.90;2.08;;;;;;;17.96;48.51;101267.38;856668;23;1195;-93
2022/07/27 00:08:51;;;;;;;3.67;2.20;;;;;;;18.02;48.55;101283.22;856891;23;1208;-93
2022/07/27 00:09:12;;;;;;;4.10;2.25;;;;;;;17.98;48.83;101278.81;852424;23;1319;-94
2022/07/27 00:09:33;;;;;;;5.47;2.20;;;;;;;17.98;48.50;101276.19;852988;23;1140;-94
2022/07/27 00:09:54;;;;;;;5.22;1.95;;;;;;;17.91;48.66;101266.44;861023;23;1254;-95
2022/07/27 00:10:16;;;;;;;4.13;1.90;;;;;;;17.95;48.68;101277.03;856108;23;1195;-95
2022/07/27 00:10:37;;;;;;;3.60;2.00;;;;;;;17.93;48.99;101264.69;852516;23;1926;-95
2022/07/27 00:10:58;;;;;;;5.05;2.40;;;;;;;17.89;48.92;101262.94;848566;23;1150;-95
2022/07/27 00:11:18;;;;;;;5.60;2.40;;;;;;;17.94;49.15;101272.63;848454;23;1505;-94
2022/07/27 00:11:40;;;;;;;4.97;2.30;;;;;;;17.90;49.13;101267.34;852557;23;1347;-94
2022/07/27 00:12:01;;;;;;;4.20;2.10;;;;;;;17.97;49.01;101279.69;848542;23;1235;-94
2022/07/27 00:12:24;;;;;;;3.50;2.00;;;;;;;17.91;49.05;101274.38;852810;23;1172;-95
2022/07/27 00:12:45;;;;;;;3.75;1.98;;;;;;;17.89;49.03;101265.56;856918;23;1113;-94
2022/07/27 00:13:06;;;;;;;3.17;2.00;;;;;;;17.87;49.19;101264.66;856656;23;1198;-94
2022/07/27 00:13:28;;;;;;;4.63;2.30;;;;;;;17.91;49.07;101275.28;852669;23;1469;-94
2022/07/27 00:13:49;;;;;;;6.63;2.40;;;;;;;17.84;49.10;101265.56;848653;23;1112;-94
2022/07/27 00:14:10;;;;;;;7.07;2.40;;;;;;;17.85;49.11;101269.06;852561;23;1222;-94
2022/07/27 00:14:34;;;;;;;6.07;2.30;;;;;;;17.86;49.23;101277.00;852243;23;1185;-94
2022/07/27 00:14:58;;;;;;;4.90;2.20;;;;;;;17.83;49.07;101265.53;856973;23;1269;-94
2022/07/27 00:15:21;;;;;;;3.50;1.90;;;;;;;17.86;49.10;101262.91;860057;23;1139;-94
2022/07/27 00:15:46;;;;;;;2.55;1.70;;;;;;;17.83;49.39;101269.06;856902;23;1224;-94
2022/07/27 00:16:07;;;;;;;3.35;1.90;;;;;;;17.89;49.23;101281.41;856958;23;1267;-95
2022/07/27 00:16:28;;;;;;;4.13;2.13;;;;;;;17.74;49.37;101261.97;852690;23;1353;-95
2022/07/27 00:16:49;;;;;;;4.45;2.40;;;;;;;17.76;49.28;101259.34;848625;23;1323;-94
2022/07/27 00:17:12;;;;;;;3.28;2.22;;;;;;;17.80;49.50;101277.84;856987;23;1270;-95
2022/07/27 00:17:36;;;;;;;2.80;1.98;;;;;;;17.71;49.46;101263.69;852942;23;1242;-94
2022/07/27 00:17:59;;;;;;;3.17;2.00;;;;;;;17.70;49.55;101268.09;852439;23;1137;-94
2022/07/27 00:18:21;;;;;;;3.73;2.00;;;;;;;17.76;49.52;101281.31;856962;23;1364;-93
2022/07/27 00:18:43;;;;;;;3.00;1.93;;;;;;;17.75;49.75;101276.03;857046;23;1063;-94
2022/07/27 00:19:11;;;;;;;4.75;2.00;;;;;;;17.66;49.69;101269.81;856925;23;1284;-93
2022/07/27 00:19:32;;;;;;;6.55;2.20;;;;;;;17.67;49.67;101265.44;856969;23;1479;-95
2022/07/27 00:19:56;;;;;;;5.82;2.20;;;;;;;17.62;49.56;101261.88;856983;23;1326;-95
2022/07/27 00:20:16;;;;;;;4.82;2.20;;;;;;;17.68;49.60;101272.47;856954;23;1180;-96
2022/07/27 00:20:43;;;;;;;4.93;2.50;;;;;;;17.63;49.75;101268.91;852862;23;1464;-96
2022/07/27 00:21:14;;;;;;;4.55;2.63;;;;;;;17.63;49.66;101268.91;856797;23;1235;-95
2022/07/27 00:21:37;;;;;;;4.88;2.65;;;;;;;17.61;49.81;101268.03;852802;23;1199;-95
2022/07/27 00:22:04;;;;;;;6.22;2.72;;;;;;;17.63;49.80;101268.91;852853;23;1298;-94
2022/07/27 00:22:25;;;;;;;4.97;2.40;;;;;;;17.64;49.73;101268.06;848849;23;1213;-94
2022/07/27 00:22:49;;;;;;;5.80;2.50;;;;;;;17.65;49.83;101264.56;856680;23;1144;-94
2022/07/27 00:23:17;;;;;;;4.32;2.25;;;;;;;17.69;49.75;101274.25;856841;23;1195;-95
2022/07/27 00:23:46;;;;;;;4.50;2.28;;;;;;;17.71;49.67;101283.06;856913;23;1361;-95
2022/07/27 00:24:10;;;;;;;5.30;2.30;;;;;;;17.71;49.78;101283.06;852649;23;1263;-94
2022/07/27 00:24:31;;;;;;;4.75;2.22;;;;;;;17.70;49.71;101278.63;856944;23;1276;-94
2022/07/27 00:24:52;;;;;;;3.60;2.10;;;;;;;17.59;49.82;101264.50;860875;23;1240;-93
2022/07/27 00:25:16;;;;;;;4.00;2.17;;;;;;;17.66;49.85;101282.16;856792;23;1136;-94
2022/07/27 00:25:39;;;;;;;4.22;2.22;;;;;;;17.62;50.00;101278.59;852766;23;1219;-94
2022/07/27 00:26:00;;;;;;;3.67;2.00;;;;;;;17.60;49.79;101274.19;861108;23;1388;-94
2022/07/27 00:26:21;;;;;;;3.40;1.98;;;;;;;17.58;49.91;101273.31;865131;22;1183;-95
2022/07/27 00:26:45;;;;;;;3.58;2.10;;;;;;;17.50;49.95;101262.69;852791;23;1240;-94
2022/07/27 00:27:07;;;;;;;3.83;2.03;;;;;;;17.58;49.91;101275.94;852138;23;1235;-95
2022/07/27 00:27:30;;;;;;;4.80;2.10;;;;;;;17.51;49.97;101265.34;857060;23;1384;-94
2022/07/27 00:27:53;;;;;;;6.20;2.10;;;;;;;17.60;50.17;101283.00;852651;23;1299;-94
2022/07/27 00:28:16;;;;;;;5.28;2.00;;;;;;;17.57;50.17;101276.81;852527;23;1317;-94
2022/07/27 00:28:37;;;;;;;5.15;2.05;;;;;;;17.49;49.93;101264.44;852681;23;1227;-94
2022/07/27 00:29:00;;;;;;;4.68;2.17;;;;;;;17.51;49.94;101267.97;848690;23;1224;-94
2022/07/27 00:29:23;;;;;;;4.32;2.20;;;;;;;17.52;50.17;101277.66;852640;23;1243;-94
2022/07/27 00:29:47;;;;;;;3.25;2.00;;;;;;;17.47;50.46;101268.84;852850;23;1208;-95
2022/07/27 00:30:08;;;;;;;3.47;1.92;;;;;;;17.48;50.32;101264.44;856727;23;1370;-94
2022/07/27 00:30:33;;;;;;;3.00;2.00;;;;;;;17.50;50.24;101276.75;856739;23;1952;-94
2022/07/27 00:30:54;;;;;;;2.88;2.10;;;;;;;17.44;50.33;101267.94;852755;23;1195;-94
2022/07/27 00:31:15;;;;;;;2.83;2.13;;;;;;;17.46;50.37;101271.47;856657;23;1281;-95
2022/07/27 00:31:36;;;;;;;3.63;2.20;;;;;;;17.38;50.60;101258.19;852904;23;1286;-94
2022/07/27 00:31:57;;;;;;;4.80;2.40;;;;;;;17.45;50.42;101264.41;852659;23;1172;-94
2022/07/27 00:32:20;;;;;;;5.70;2.42;;;;;;;17.45;50.54;101274.97;856734;23;1164;-95
2022/07/27 00:32:41;;;;;;;4.80;2.17;;;;;;;17.42;50.45;101270.56;856873;23;1135;-94
2022/07/27 00:33:04;;;;;;;3.70;1.95;;;;;;;17.46;50.65;101287.28;860936;23;1333;-94
2022/07/27 00:33:28;;;;;;;4.03;2.10;;;;;;;17.38;50.56;101280.19;856842;23;1260;-95
2022/07/27 00:33:49;;;;;;;6.30;2.20;;;;;;;17.43;50.63;101282.88;856699;23;1181;-95
2022/07/27 00:34:10;;;;;;;6.35;2.35;;;;;;;17.38;50.66;101274.03;860797;23;1317;-94
2022/07/27 00:34:31;;;;;;;5.18;2.38;;;;;;;17.38;50.75;101279.31;852693;23;1175;-94
2022/07/27 00:34:56;;;;;;;3.75;2.40;;;;;;;17.28;50.82;101253.72;856828;23;1254;-94
2022/07/27 00:35:17;;;;;;;5.88;2.40;;;;;;;17.37;50.64;101270.53;860935;23;1163;-93
2022/07/27 00:35:38;;;;;;;6.45;2.33;;;;;;;17.32;50.74;101269.59;861212;23;1622;-94
2022/07/27 00:36:05;;;;;;;5.40;2.40;;;;;;;17.35;50.68;101276.66;852696;23;1354;-95
2022/07/27 00:36:29;;;;;;;4.88;2.38;;;;;;;17.38;50.81;101281.94;861083;23;1249;-95
2022/07/27 00:37:07;;;;;;;4.30;2.10;;;;;;;17.34;50.69;101269.63;861147;23;1215;-95
2022/07/27 00:37:28;;;;;;;5.38;2.00;;;;;;;17.31;50.83;101261.66;852330;23;1247;-94
2022/07/27 00:37:51;;;;;;;7.18;2.40;;;;;;;17.36;50.73;101275.78;848250;23;1293;-94
2022/07/27 00:38:14;;;;;;;6.05;2.40;;;;;;;17.36;50.64;101270.50;848420;23;1319;-95
2022/07/27 00:38:36;;;;;;;5.35;2.33;;;;;;;17.31;50.78;101272.19;852719;23;1199;-94
2022/07/27 00:38:59;;;;;;;3.45;2.30;;;;;;;17.29;50.71;101263.41;861203;23;1306;-93
2022/07/27 00:39:20;;;;;;;3.05;2.05;;;;;;;17.31;50.67;101266.94;860705;23;1288;-95
2022/07/27 00:39:46;;;;;;;3.30;2.00;;;;;;;17.36;50.65;101275.78;861150;23;1222;-95
2022/07/27 00:40:10;;;;;;;2.90;1.95;;;;;;;17.34;50.74;101282.81;852478;23;1349;-93
2022/07/27 00:40:34;;;;;;;2.53;1.90;;;;;;;17.36;50.67;101286.31;852598;23;1437;-94
2022/07/27 00:40:59;;;;;;;3.92;1.98;;;;;;;17.25;50.72;101259.84;856821;23;1271;-95
2022/07/27 00:41:22;;;;;;;6.10;2.55;;;;;;;17.34;50.81;101272.25;856730;23;1327;-94
2022/07/27 00:41:45;;;;;;;6.90;2.90;;;;;;;17.39;50.85;101276.69;852425;23;1119;-94
2022/07/27 00:42:06;;;;;;;5.55;2.50;;;;;;;17.38;50.96;101279.31;861039;23;1255;-94
2022/07/27 00:42:27;;;;;;;5.85;2.60;;;;;;;17.35;50.74;101268.75;861198;23;1274;-94
2022/07/27 00:42:50;;;;;;;5.88;2.53;;;;;;;17.35;50.71;101274.00;852715;23;1144;-95
2022/07/27 00:43:11;;;;;;;5.18;2.47;;;;;;;17.34;50.67;101266.97;856748;23;1259;-94
2022/07/27 00:43:47;;;;;;;4.07;2.42;;;;;;;17.32;50.56;101258.19;856915;23;1278;-95
2022/07/27 00:44:11;;;;;;;13.48;2.90;;;;;;;17.40;50.61;101283.72;861007;23;1230;-94
2022/07/27 00:44:33;;;;;;;13.57;2.90;;;;;;;17.33;50.64;101274.00;856977;23;1404;-94
2022/07/27 00:44:54;;;;;;;13.63;2.70;;;;;;;17.38;50.84;101268.75;852878;23;1181;-95
2022/07/27 00:45:19;;;;;;;4.35;2.30;;;;;;;17.42;50.82;101278.47;852532;23;1416;-95
2022/07/27 00:45:41;;;;;;;4.53;2.45;;;;;;;17.34;50.81;101264.34;852779;23;1282;-93
2022/07/27 00:46:04;;;;;;;5.07;2.60;;;;;;;17.39;50.70;101276.69;848651;23;1323;-94
2022/07/27 00:46:29;;;;;;;4.30;2.30;;;;;;;17.34;50.73;101261.69;856780;23;1280;-95
2022/07/27 00:46:58;;;;;;;4.13;2.20;;;;;;;17.40;50.95;101272.31;861143;23;1371;-95
2022/07/27 00:47:20;;;;;;;3.78;2.10;;;;;;;17.37;50.72;101269.63;856753;23;1188;-94
2022/07/27 00:47:41;;;;;;;3.42;1.98;;;;;;;17.43;50.78;101277.59;852576;23;1372;-93
2022/07/27 00:48:03;;;;;;;3.60;2.10;;;;;;;17.40;50.96;101269.66;856720;23;1205;-95
2022/07/27 00:48:23;;;;;;;4.10;2.20;;;;;;;17.48;50.82;101286.44;852694;23;1328;-94
2022/07/27 00:48:44;;;;;;;5.03;2.33;;;;;;;17.43;50.74;101282.88;852935;23;1184;-94
2022/07/27 00:49:05;;;;;;;4.07;2.20;;;;;;;17.41;50.79;101268.78;852440;23;1202;-94
2022/07/27 00:49:26;;;;;;;4.15;2.28;;;;;;;17.50;50.90;101279.41;856930;23;1182;-95
2022/07/27 00:49:52;;;;;;;6.30;2.40;;;;;;;17.43;50.87;101272.31;852840;23;1268;-94
2022/07/27 00:50:13;;;;;;;6.43;2.25;;;;;;;17.42;50.72;101265.28;852698;23;1398;-94
2022/07/27 00:50:40;;;;;;;7.07;2.10;;;;;;;17.44;50.71;101273.22;852838;23;1906;-94
2022/07/27 00:51:05;;;;;;;3.85;2.00;;;;;;;17.47;50.69;101274.13;852717;23;1302;-95
2022/07/27 00:51:30;;;;;;;4.40;2.10;;;;;;;17.44;50.64;101267.94;852404;23;1178;-96
2022/07/27 00:51:54;;;;;;;3.80;2.10;;;;;;;17.51;50.68;101277.63;856944;23;1397;-95
2022/07/27 00:52:16;;;;;;;4.28;2.20;;;;;;;17.48;50.64;101270.59;852437;23;1251;-94
2022/07/27 00:52:41;;;;;;;3.33;2.20;;;;;;;17.46;50.94;101267.03;848858;23;1401;-94
2022/07/27 00:53:14;;;;;;;4.35;2.40;;;;;;;17.51;50.77;101281.16;855991;23;1378;-96
2022/07/27 00:53:35;;;;;;;7.30;2.50;;;;;;;17.52;50.71;101280.28;857041;23;1319;-94
2022/07/27 00:53:58;;;;;;;7.40;2.45;;;;;;;17.57;50.72;101284.72;848518;23;1239;-94
2022/07/27 00:54:23;;;;;;;6.25;2.60;;;;;;;17.48;50.68;101273.25;856633;23;1179;-94
2022/07/27 00:54:46;;;;;;;5.07;2.40;;;;;;;17.58;50.48;101291.78;852786;23;1274;-95
2022/07/27 00:55:08;;;;;;;4.07;2.20;;;;;;;17.53;50.71;101279.41;852671;23;1314;-93
2022/07/27 00:55:34;;;;;;;2.42;2.20;;;;;;;17.47;50.69;101270.59;852881;23;823;-94
2022/07/27 00:55:55;;;;;;;3.28;2.40;;;;;;;17.59;50.66;101283.88;852781;23;1369;-94
2022/07/27 00:56:16;;;;;;;7.70;2.70;;;;;;;17.53;50.73;101275.91;860822;23;1178;-94
2022/07/27 00:56:40;;;;;;;8.00;2.53;;;;;;;17.54;50.58;101281.19;861060;23;1357;-94
2022/07/27 00:57:03;;;;;;;8.63;2.70;;;;;;;17.53;50.75;101279.41;856817;23;1089;-95
2022/07/27 00:57:25;;;;;;;4.55;2.30;;;;;;;17.59;50.62;101286.50;848395;23;1455;-95
2022/07/27 00:57:46;;;;;;;4.13;2.28;;;;;;;17.50;50.71;101273.22;856651;23;1267;-94
2022/07/27 00:58:07;;;;;;;4.25;2.40;;;;;;;17.51;50.80;101278.53;856721;23;1152;-95
2022/07/27 00:58:28;;;;;;;4.07;2.55;;;;;;;17.56;50.79;101275.06;860908;23;1285;-94
2022/07/27 00:58:51;;;;;;;3.83;2.63;;;;;;;17.55;50.68;101276.78;852172;23;1391;-95
2022/07/27 00:59:15;;;;;;;3.00;2.60;;;;;;;17.51;50.92;101275.00;848419;23;1432;-95
2022/07/27 00:59:37;;;;;;;2.72;2.28;;;;;;;17.57;50.84;101280.31;852597;23;1227;-93
2022/07/27 00:59:58;;;;;;;2.55;2.03;;;;;;;17.50;50.87;101276.75;856908;23;1263;-93
2022/07/27 01:00:20;;;;;;;3.37;2.17;;;;;;;17.48;50.77;101265.31;852586;23;1187;-93
2022/07/27 01:00:41;;;;;;;4.40;2.25;;;;;;;17.57;51.01;101282.09;856884;23;1089;-94
2022/07/27 01:01:01;;;;;;;6.60;2.25;;;;;;;17.57;50.82;101274.19;852798;23;1243;-93
2022/07/27 01:01:23;;;;;;;6.05;2.17;;;;;;;17.51;50.65;101267.97;856660;23;1147;-93
2022/07/27 01:01:44;;;;;;;5.32;2.20;;;;;;;17.63;51.19;101290.03;855869;23;1208;-95
2022/07/27 01:02:08;;;;;;;3.20;2.15;;;;;;;17.57;50.72;101280.31;860996;23;1293;-93
2022/07/27 01:02:29;;;;;;;3.90;2.15;;;;;;;17.54;50.86;101273.25;861039;23;1194;-94
2022/07/27 01:02:52;;;;;;;5.10;2.00;;;;;;;17.61;50.83;101281.22;856696;23;1104;-94
2022/07/27 01:03:15;;;;;;;5.32;2.03;;;;;;;17.57;50.87;101271.53;848509;23;1329;-95
2022/07/27 01:03:38;;;;;;;4.85;2.08;;;;;;;17.57;50.84;101272.41;856859;23;1112;-94
2022/07/27 01:03:59;;;;;;;4.10;2.00;;;;;;;17.55;51.00;101260.97;860937;23;1250;-96
2022/07/27 01:04:27;;;;;;;4.63;2.10;;;;;;;17.63;50.88;101279.47;852564;23;1169;-95
2022/07/27 01:04:49;;;;;;;4.40;2.30;;;;;;;17.58;50.76;101266.25;852836;23;1369;-95
2022/07/27 01:05:14;;;;;;;4.07;2.50;;;;;;;17.56;50.65;101261.84;852563;23;1301;-94
2022/07/27 01:05:38;;;;;;;4.30;2.13;;;;;;;17.58;50.67;101265.38;852783;23;1210;-94
2022/07/27 01:05:59;;;;;;;4.90;2.10;;;;;;;17.60;50.71;101268.91;852908;23;1195;-96
2022/07/27 01:06:30;;;;;;;4.28;2.05;;;;;;;17.57;50.61;101272.41;852792;23;1417;-95
2022/07/27 01:06:51;;;;;;;3.38;2.17;;;;;;;17.60;50.56;101279.47;861106;23;1223;-94
2022/07/27 01:07:13;;;;;;;3.88;2.20;;;;;;;17.53;50.70;101263.59;860934;23;1070;-95
2022/07/27 01:07:34;;;;;;;3.55;2.20;;;;;;;17.51;50.58;101265.34;856924;23;1402;-95
2022/07/27 01:08:06;;;;;;;4.50;2.40;;;;;;;17.54;50.57;101264.47;848510;23;1288;-95
2022/07/27 01:08:31;;;;;;;5.30;2.80;;;;;;;17.65;50.71;101288.31;861088;23;1279;-95
2022/07/27 01:09:55;;;;;;;4.35;2.50;;;;;;;17.58;50.85;101273.31;856960;23;1120;-95
2022/07/27 01:10:13;;;;;;;3.58;2.10;;;;;;;17.56;50.79;101269.78;848258;23;1214;-94
2022/07/27 01:10:38;;;;;;;3.55;2.05;;;;;;;17.52;50.61;101263.59;852729;23;1933;-94
2022/07/27 01:11:01;;;;;;;3.95;2.20;;;;;;;17.60;50.84;101279.47;848538;23;1187;-95
2022/07/27 01:11:23;;;;;;;4.03;2.30;;;;;;;17.53;50.79;101268.84;852520;23;1216;-94
2022/07/27 01:11:44;;;;;;;4.85;2.30;;;;;;;17.57;51.20;101275.03;856849;23;1348;-95
2022/07/27 01:12:15;;;;;;;4.03;1.85;;;;;;;17.52;50.92;101269.75;852349;23;1268;-95
2022/07/27 01:12:39;;;;;;;4.75;2.10;;;;;;;17.60;50.80;101282.09;848653;23;1271;-95
2022/07/27 01:13:01;;;;;;;4.20;2.25;;;;;;;17.55;50.94;101268.88;852680;23;1327;-93
2022/07/27 01:13:24;;;;;;;4.32;2.40;;;;;;;17.49;50.71;101260.91;848577;23;1289;-94
2022/07/27 01:13:45;;;;;;;3.28;2.30;;;;;;;17.54;50.76;101267.97;856885;23;1472;-94
2022/07/27 01:14:09;;;;;;;3.33;2.28;;;;;;;17.51;50.86;101267.06;860924;23;1205;-94
2022/07/27 01:14:30;;;;;;;2.42;2.22;;;;;;;17.55;50.66;101271.53;852740;23;1215;-94
2022/07/27 01:14:55;;;;;;;3.10;2.40;;;;;;;17.50;50.71;101263.56;852704;23;1366;-95
2022/07/27 01:15:16;;;;;;;3.67;2.55;;;;;;;17.53;50.61;101268.84;856562;23;1262;-95
2022/07/27 01:15:41;;;;;;;4.38;2.45;;;;;;;17.50;50.60;101263.56;852812;23;1244;-94
2022/07/27 01:16:06;;;;;;;4.63;2.78;;;;;;;17.48;50.92;101265.31;852630;23;1297;-94
2022/07/27 01:16:27;;;;;;;4.43;2.75;;;;;;;17.52;50.49;101266.22;852595;23;1308;-94
2022/07/27 01:16:51;;;;;;;4.47;2.70;;;;;;;17.53;50.71;101268.00;856739;23;1447;-91
2022/07/27 01:17:16;;;;;;;5.43;2.90;;;;;;;17.46;50.93;101261.78;852477;23;1277;-94
2022/07/27 01:17:39;;;;;;;4.55;2.70;;;;;;;17.45;50.79;101260.00;852685;23;1322;-94
2022/07/27 01:18:03;;;;;;;4.78;2.70;;;;;;;17.44;50.89;101266.16;852396;23;1223;-95
2022/07/27 01:18:30;;;;;;;4.35;2.40;;;;;;;17.45;50.96;101262.66;856602;23;1582;-95
2022/07/27 01:18:54;;;;;;;5.32;2.30;;;;;;;17.45;50.81;101270.56;852808;23;1203;-95
2022/07/27 01:19:20;;;;;;;5.00;2.28;;;;;;;17.52;51.00;101274.16;856466;23;1382;-95
2022/07/27 01:19:48;;;;;;;4.90;2.30;;;;;;;17.44;50.85;101263.53;848644;23;1391;-96
2022/07/27 01:20:12;;;;;;;4.20;2.00;;;;;;;17.44;50.88;101260.88;856613;23;1231;-95
2022/07/27 01:20:36;;;;;;;5.43;2.20;;;;;;;17.38;50.85;101253.81;852604;23;1264;-95
2022/07/27 01:21:05;;;;;;;6.07;2.50;;;;;;;17.37;50.89;101259.97;856815;23;1183;-95
2022/07/27 01:21:33;;;;;;;5.10;2.47;;;;;;;17.39;50.99;101259.97;860898;23;1364;-95
2022/07/27 01:22:09;;;;;;;3.90;2.40;;;;;;;17.35;50.96;101253.81;856619;23;1448;-95
2022/07/27 01:22:32;;;;;;;4.30;2.20;;;;;;;17.37;51.03;101256.44;852551;23;1380;-96
2022/07/27 01:22:53;;;;;;;4.00;2.20;;;;;;;17.38;51.12;101263.47;852695;23;1196;-94
2022/07/27 01:23:14;;;;;;;3.85;2.30;;;;;;;17.40;51.19;101281.09;856930;23;1286;-94
2022/07/27 01:23:38;;;;;;;3.75;2.40;;;;;;;17.38;51.34;101274.03;861402;23;1412;-95
2022/07/27 01:24:18;;;;;;;4.28;2.47;;;;;;;17.36;51.24;101270.50;848654;23;1367;-95
2022/07/27 01:24:39;;;;;;;4.07;2.20;;;;;;;17.30;51.28;101259.88;848825;23;1223;-96
2022/07/27 01:25:02;;;;;;;4.90;2.47;;;;;;;17.33;51.46;101265.22;848918;23;1332;-96
2022/07/27 01:25:27;;;;;;;7.30;3.00;;;;;;;17.31;51.42;101261.66;848885;23;853;-95
2022/07/27 01:25:48;;;;;;;7.00;3.10;;;;;;;17.33;51.45;101276.63;853064;23;1122;-95
2022/07/27 01:26:16;;;;;;;4.18;2.22;;;;;;;17.30;51.42;101266.06;852768;23;1112;-95
2022/07/27 01:26:38;;;;;;;3.22;2.10;;;;;;;17.30;51.57;101266.06;848447;23;1369;-96
2022/07/27 01:27:02;;;;;;;3.30;2.10;;;;;;;17.28;51.63;101272.19;857045;23;1383;-95
2022/07/27 01:27:25;;;;;;;4.90;2.50;;;;;;;17.32;51.44;101266.94;857103;23;1143;-96
2022/07/27 01:27:51;;;;;;;5.80;2.70;;;;;;;17.26;51.49;101270.44;861317;23;1175;-96
2022/07/27 01:28:12;;;;;;;5.70;2.70;;;;;;;17.22;51.55;101263.34;856756;23;1194;-94
2022/07/27 01:28:38;;;;;;;4.38;2.40;;;;;;;17.21;51.54;101258.94;856839;23;1397;-95
2022/07/27 01:29:01;;;;;;;3.67;2.40;;;;;;;17.17;51.36;101257.13;848824;23;1215;-94
2022/07/27 01:29:24;;;;;;;4.05;2.40;;;;;;;17.26;51.43;101264.25;848802;23;1243;-96
2022/07/27 01:29:48;;;;;;;5.00;2.45;;;;;;;17.24;51.53;101266.00;853001;23;1259;-95
2022/07/27 01:30:28;;;;;;;5.43;2.30;;;;;;;17.22;51.58;101270.41;852573;23;1115;-96
2022/07/27 01:30:49;;;;;;;4.03;2.20;;;;;;;17.23;51.68;101269.53;861196;23;1209;-95
2022/07/27 01:31:12;;;;;;;3.55;2.30;;;;;;;17.24;51.70;101271.28;852794;23;1270;-94
2022/07/27 01:31:43;;;;;;;3.17;2.50;;;;;;;17.15;51.95;101264.13;848974;23;1242;-96
2022/07/27 01:32:06;;;;;;;3.90;2.50;;;;;;;17.15;51.88;101269.41;853044;23;1308;-96
2022/07/27 01:32:30;;;;;;;5.20;2.60;;;;;;;17.23;51.91;101277.44;857131;23;1394;-96
2022/07/27 01:33:02;;;;;;;5.75;2.13;;;;;;;17.16;51.95;101268.56;857069;23;1218;-95
2022/07/27 01:33:25;;;;;;;5.05;2.22;;;;;;;17.13;51.82;101266.78;852937;23;1372;-95
2022/07/27 01:33:49;;;;;;;3.70;2.40;;;;;;;17.17;51.98;101274.69;853078;23;1262;-96
2022/07/27 01:34:10;;;;;;;4.25;2.53;;;;;;;17.08;52.01;101254.44;852962;23;1154;-96
2022/07/27 01:34:40;;;;;;;5.63;2.70;;;;;;;17.12;52.10;101267.66;852648;23;1472;-95
2022/07/27 01:35:01;;;;;;;6.57;2.40;;;;;;;17.04;52.06;101252.63;857159;23;1220;-94
2022/07/27 01:35:32;;;;;;;4.70;2.20;;;;;;;17.05;52.14;101254.38;853033;23;1215;-95
2022/07/27 01:35:55;;;;;;;4.85;2.50;;;;;;;17.12;51.95;101266.75;853094;23;1125;-94
2022/07/27 01:36:16;;;;;;;4.10;2.40;;;;;;;17.15;52.09;101277.31;861091;23;1304;-94
2022/07/27 01:36:44;;;;;;;4.13;2.40;;;;;;;17.11;52.18;101265.00;857207;23;1239;-94
2022/07/27 01:37:08;;;;;;;3.55;2.10;;;;;;;17.02;52.13;101251.72;861097;23;1176;-94
2022/07/27 01:37:31;;;;;;;3.30;1.83;;;;;;;17.07;52.26;101263.19;848762;23;1366;-95
2022/07/27 01:37:52;;;;;;;3.85;2.00;;;;;;;17.10;52.07;101269.38;853015;23;1160;-95
2022/07/27 01:38:14;;;;;;;3.95;2.05;;;;;;;17.12;52.15;101269.41;856775;23;1329;-95
2022/07/27 01:38:37;;;;;;;5.00;2.13;;;;;;;17.07;52.16;101263.19;853043;23;1326;-94
2022/07/27 01:39:08;;;;;;;5.80;2.30;;;;;;;17.07;52.20;101263.19;848671;23;1314;-95
2022/07/27 01:39:32;;;;;;;6.07;2.20;;;;;;;17.04;52.11;101264.06;848818;23;1312;-94
2022/07/27 01:39:59;;;;;;;5.88;1.98;;;;;;;17.04;52.32;101258.78;852967;23;1303;-94
2022/07/27 01:40:20;;;;;;;6.18;2.10;;;;;;;17.09;52.33;101272.00;856908;23;1309;-95
2022/07/27 01:40:44;;;;;;;4.95;2.10;;;;;;;16.96;52.21;101258.72;852973;23;1354;-95
2022/07/27 01:41:12;;;;;;;4.40;2.10;;;;;;;16.98;52.25;101261.38;852672;23;1335;-94
2022/07/27 01:41:35;;;;;;;3.63;2.40;;;;;;;16.94;52.20;101259.56;861175;22;1542;-94
2022/07/27 01:42:00;;;;;;;3.42;2.30;;;;;;;16.97;52.28;101257.84;861325;23;1270;-95
2022/07/27 01:42:28;;;;;;;5.00;2.42;;;;;;;16.97;52.16;101263.09;853000;23;1459;-94
2022/07/27 01:42:51;;;;;;;6.30;2.70;;;;;;;17.01;52.41;101276.34;852967;23;1326;-95
2022/07/27 01:43:12;;;;;;;4.60;2.42;;;;;;;16.96;52.42;101269.25;857041;23;1276;-95
2022/07/27 01:43:33;;;;;;;4.03;2.60;;;;;;;16.96;52.33;101271.88;852726;23;1250;-94
2022/07/27 01:43:54;;;;;;;3.88;2.70;;;;;;;16.91;52.46;101257.75;857034;23;1379;-94
2022/07/27 01:44:15;;;;;;;5.72;2.78;;;;;;;16.99;52.56;101277.19;860745;23;1187;-95
2022/07/27 01:44:36;;;;;;;5.85;2.63;;;;;;;16.93;52.53;101271.88;857179;23;1458;-94
2022/07/27 01:44:59;;;;;;;6.88;2.58;;;;;;;16.96;52.59;101276.28;865419;22;1230;-95
2022/07/27 01:45:20;;;;;;;4.90;2.17;;;;;;;16.98;52.60;101275.41;861194;23;1191;-95
2022/07/27 01:45:41;;;;;;;7.20;2.22;;;;;;;16.94;52.62;101263.09;852923;23;1117;-94
2022/07/27 01:46:02;;;;;;;6.18;2.17;;;;;;;16.87;52.42;101253.34;848686;23;1274;-94
2022/07/27 01:46:26;;;;;;;5.50;2.10;;;;;;;16.94;52.50;101273.63;852944;23;1259;-95
2022/07/27 01:46:47;;;;;;;3.70;1.90;;;;;;;16.88;52.50;101257.75;856842;23;1147;-95
2022/07/27 01:47:08;;;;;;;2.92;1.80;;;;;;;16.93;52.61;101271.88;860942;23;1210;-96
2022/07/27 01:47:30;;;;;;;4.00;2.00;;;;;;;16.85;52.67;101260.38;857102;23;1061;-95
2022/07/27 01:47:51;;;;;;;4.63;2.30;;;;;;;16.95;52.57;101277.13;852961;23;1219;-94
2022/07/27 01:48:12;;;;;;;6.55;2.60;;;;;;;16.91;52.77;101267.44;852688;23;1082;-94
2022/07/27 01:48:35;;;;;;;6.68;2.75;;;;;;;16.89;52.98;101267.41;857070;23;1151;-96
2022/07/27 01:49:04;;;;;;;5.05;2.65;;;;;;;16.90;52.83;101270.97;857123;23;1242;-95
2022/07/27 01:49:24;;;;;;;4.85;2.47;;;;;;;16.94;52.89;101278.91;861240;23;1175;-95
2022/07/27 01:49:45;;;;;;;4.00;2.20;;;;;;;16.93;52.85;101277.16;857090;23;1151;-93
2022/07/27 01:50:16;;;;;;;4.65;2.40;;;;;;;16.83;52.91;101262.97;848695;23;1303;-94
2022/07/27 01:50:40;;;;;;;5.20;2.40;;;;;;;16.86;53.04;101264.78;852887;23;1913;-93
2022/07/27 01:51:06;;;;;;;5.47;2.30;;;;;;;16.86;52.82;101265.63;856992;23;1236;-95
2022/07/27 01:51:29;;;;;;;4.30;2.30;;;;;;;16.80;53.00;101255.06;852945;23;1117;-94
2022/07/27 01:51:53;;;;;;;3.67;2.50;;;;;;;16.86;52.92;101267.41;861031;23;1220;-95
2022/07/27 01:52:14;;;;;;;3.53;2.20;;;;;;;16.86;53.01;101267.41;852892;23;1294;-95
2022/07/27 01:52:38;;;;;;;4.40;2.35;;;;;;;16.79;53.18;101268.22;852932;23;1187;-94
2022/07/27 01:53:01;;;;;;;6.43;2.30;;;;;;;16.84;53.19;101274.44;852905;23;1180;-95